Tiempo atmosférico en la estación meteorológica de Bardenas Reales, Base Aérea, Navarra (295 m.)



Fecha
DESCASC
Temp. máxima en grados centígrados (hora)
DESCASC
Temp. mínima en grados centígrados (hora)
DESCASC
Temp. media en grados centígrados
DESCASC
Racha de viento máxima en m/sg (hora)
DESCASC
Velocidad máxima media en intervalos de 10 minutos(hora)
DESCASC
Precipitaciones diarias en mm
DESCASC
Precipitaciones de 00:00 a 06:00 en mm
DESCASC
Precipitaciones de 06:00 a 12:00 en mm
DESCASC
Precipitaciones de 12:00 a 18:00 en mm
DESCASC
Precipitaciones de 18:00 a 24:00 en mm
DESCASC
10-11-2019 8.2 (14:40) 3.5 (00:00) 5.8 15.28 (06:50) 10 (15:10) 2.6 0.6 1.8 0.2 0
09-11-2019 12.9 (12:30) 7 (00:00) 9.9 14.72 (06:50) 10 (05:20) 8.6 0.2 0 0 8.4
08-11-2019 11 (12:30) 2.4 (00:00) 6.7 21.67 (14:40) 13.89 (14:40) 17 0 0 7.2 9.8
07-11-2019 13.1 (15:10) 5.8 (00:00) 9.5 14.72 (18:30) 7.22 (18:30) 4.8 0.4 3 0 1.4
06-11-2019 15.6 (14:40) 8.5 (00:00) 12.1 13.33 (05:30) 9.17 (03:50) 0 0 0 0 0
05-11-2019 14.7 (14:50) 5.4 (00:00) 10 17.5 (15:20) 12.5 (15:20) 0.6 0 0 0.2 0.4
04-11-2019 21.9 (14:00) 9.2 (00:00) 15.5 -- (--) -- (--) 4 0 0 3.6 0.4
03-11-2019 18 (16:10) 10.2 (00:00) 14.1 -- (--) -- (--) 0.6 0 0.6 0 0
02-11-2019 20.9 (14:50) 11.2 (00:00) 16 10.56 (23:00) 8.06 (23:00) 0.2 0.2 0 0 0
01-11-2019 22.7 (14:30) 12 (00:00) 17.4 5.28 (17:40) 4.17 (17:30) 0.6 0 0 0 0.6
31-10-2019 21.5 (15:20) 12.3 (23:59) 16.9 11.11 (14:50) 8.33 (14:30) 0.8 0.8 0 0 0
30-10-2019 21.7 (15:00) 9.6 (00:00) 15.7 4.44 (15:00) 2.78 (16:40) 0 0 0 0 0
29-10-2019 22.9 (16:30) 9 (00:00) 15.9 4.72 (17:30) 3.61 (17:30) 0 0 0 0 0
28-10-2019 21.6 (16:10) 12.2 (00:00) 16.9 7.5 (14:50) 4.17 (00:30) 0 0 0 0 0
27-10-2019 21.9 (15:20) 7.9 (00:00) 14.9 7.78 (15:30) 5.28 (15:40) 0 0 0 0 0
26-10-2019 22.6 (16:30) 7.7 (00:00) 15.2 8.61 (15:50) 5.83 (15:40) 0 0 0 0 0
25-10-2019 22.8 (17:30) 6.5 (00:00) 14.6 5.28 (14:00) 3.61 (14:00) 0.2 0 0.2 0 0
24-10-2019 16.7 (16:10) 9.8 (00:00) 13.3 8.06 (06:30) 6.11 (16:50) 0 0 0 0 0
23-10-2019 15.8 (17:10) 9.9 (00:00) 12.8 8.33 (15:20) 5.83 (03:30) 3 0.2 2.6 0.2 0
22-10-2019 11 (15:50) 5.8 (04:50) 8.4 13.33 (16:40) 9.72 (17:00) 8.6 0 0 5.2 3.4
21-10-2019 17.5 (15:30) 7.4 (00:00) 12.5 6.39 (00:10) 4.72 (00:10) 0 0 0 0 0
20-10-2019 19.4 (00:00) 10.3 (00:00) 14.8 13.89 (17:20) 9.72 (17:20) 5 3 0.6 0 1.4
19-10-2019 21.5 (16:40) 14.8 (00:00) 18.2 10.83 (23:00) 7.22 (10:20) 0.2 0 0 0.2 0
18-10-2019 20.3 (17:20) 13.2 (00:00) 16.7 11.11 (05:10) 8.33 (05:10) 7.4 4.8 2.4 0 0.2
17-10-2019 22.9 (17:00) 12.2 (00:00) 17.5 9.44 (11:00) 7.22 (04:30) 0 0 0 0 0
16-10-2019 21.9 (17:00) 9.6 (00:00) 15.8 9.72 (23:00) 6.67 (22:10) 0 0 0 0 0
15-10-2019 19.7 (17:00) 8.1 (00:00) 13.9 -- (--) -- (--) 1.8 1.6 0.2 0 0
14-10-2019 23.8 (13:40) 12.9 (00:00) 18.3 -- (--) -- (--) 1.8 0 0 1.8 0

Gráficas

Temp. máximas Temp. mínimas Temp. medias Precipitaciones Rachas de viento máximas Velocidades máximas media en intervalos de 10 minutos

Datos horarios

Fecha y hora oficial Temperatura (ºC) Velocidad del viento (km/h) Dirección del viento Racha (km/h) Dirección de racha Precipitación (mm) Presión (hPa) Tendencia (hPa) Humedad (%)
2019-11-12 23:00:00 8.6 9 Sur 11 Sur 0 973 -1.1 87
2019-11-12 22:00:00 9.4 4 Noroeste 14 Noroeste 0 973.6 -1 83
2019-11-12 21:00:00 9.2 5 Norte 10 Norte 0 973.9 -0.9 83
2019-11-12 20:00:00 9.6 4 Sudoeste 13 Sur 0 974.1 -1.4 77
2019-11-12 19:00:00 10 7 Noroeste 10 Noroeste 0 974.6 -1.5 79
2019-11-12 18:00:00 11.2 8 Oeste 18 Noroeste 0 974.8 -1.9 71
2019-11-12 17:00:00 12.9 15 Noroeste 28 Noroeste 0 975.5 -1.8 61
2019-11-12 16:00:00 12.8 21 Oeste 35 Oeste 0 976.1 -2.1 61
2019-11-12 15:00:00 13 24 Oeste 37 Noroeste 0 976.7 -2.3 58
2019-11-12 14:00:00 12.2 23 Noroeste 35 Oeste 0 977.3 -2.2 62
2019-11-12 13:00:00 11.5 24 Oeste 36 Noroeste 0 978.2 -1.2 64
2019-11-12 12:00:00 10.6 22 Oeste 36 Oeste 0 979 -0.9 66
2019-11-12 11:00:00 10.5 29 Oeste 41 Oeste 0 979.5 -0.2 67
2019-11-12 10:00:00 9.3 26 Oeste 39 Oeste 0 979.4 -0.2 70
2019-11-12 09:00:00 8.1 13 Noroeste 24 Oeste 0 979.9 -0.2 78
2019-11-12 08:00:00 8.1 19 Oeste 36 Oeste 0 979.7 -0.6 77
2019-11-12 07:00:00 7.6 13 Noroeste 28 Noroeste 0 979.6 -0.8 81
2019-11-12 06:00:00 7.4 15 Noroeste 24 Noroeste 0 980.1 -0.6 81
2019-11-12 05:00:00 6.9 9 Noroeste 23 Oeste 0 980.3 -0.7 84
2019-11-12 04:00:00 6.7 17 Oeste 26 Oeste 0 980.4 -1.4 85
2019-11-12 03:00:00 6 21 Noroeste 39 Oeste 0 980.7 -1.1 85
2019-11-12 02:00:00 5.7 18 Noroeste 26 Noroeste 0 981 -1.1 87
2019-11-12 01:00:00 5.4 17 Noroeste 29 Noroeste 0 981.8 -0.5 88
2019-11-12 00:00:00 6.2 16 Noroeste 28 Oeste 0 981.8 -0.1 85
2019-11-11 23:00:00 6.8 20 Oeste 25 Oeste 0 982.1 0.3 85
2019-11-11 22:00:00 7.3 17 Noroeste 28 Noroeste 0 982.3 1 85
2019-11-11 21:00:00 7.8 23 Noroeste 36 Noroeste 0 981.9 1.3 82
2019-11-11 20:00:00 7.6 21 Noroeste 28 Noroeste 0 981.8 1.5 85
2019-11-11 19:00:00 8.2 16 Noroeste 42 Noroeste 0 981.3 2.2 81
2019-11-11 18:00:00 9.2 27 Noroeste 41 Noroeste 0 980.6 1.4 76
2019-11-11 17:00:00 10.2 33 Noroeste 62 Noroeste 0.2 980.3 1.2 77
2019-11-11 16:00:00 10.9 36 Noroeste 48 Noroeste 0 979.1 -0.4 83
2019-11-11 15:00:00 9.2 19 Oeste 30 Oeste 0.2 979.2 -1.1 93
2019-11-11 14:00:00 7.9 18 Noroeste 25 Noroeste 0.8 979.1 -1.4 94
2019-11-11 13:00:00 8.3 14 Oeste 19 Oeste 1 979.5 -0.7 93
2019-11-11 12:00:00 8.1 9 Oeste 16 Noroeste 0.4 980.3 0.2 90
2019-11-11 11:00:00 7.3 0 Calma 8 Oeste 0.4 980.5 0.7 89
2019-11-11 10:00:00 6.4 4 Sudoeste 11 Oeste 0 980.2 0 88
2019-11-11 09:00:00 5.5 6 Sudoeste 11 Sudoeste 0 980.1 -0.6 90
2019-11-11 08:00:00 4.8 5 Oeste 10 Sudoeste 0 979.8 -1 91
2019-11-11 07:00:00 4.6 7 Sudoeste 11 Oeste 0 980.2 -0.9 91
2019-11-11 06:00:00 4.2 5 Noroeste 12 Oeste 0 980.7 -0.7 92
2019-11-11 05:00:00 3.6 7 Sudoeste 11 Sudoeste 0 980.8 -1 93
2019-11-11 04:00:00 3.4 5 Sudoeste 10 Oeste 0 981.1 -1.1 92
2019-11-11 03:00:00 3.5 4 Sur 21 Noroeste 0 981.4 -0.9 91
2019-11-11 02:00:00 3.5 15 Noroeste 19 Noroeste 0 981.8 0.1 94
2019-11-11 01:00:00 3.7 12 Norte 18 Noroeste 0 982.2 1.5 90
2019-11-11 00:00:00 3.8 4 Noroeste 13 Noroeste 0 982.3 0.8 90
2019-11-10 23:00:00 4.5 6 Noroeste 34 Noroeste 0 981.7 0.5 88
2019-11-10 22:00:00 4.8 27 Noroeste 37 Noroeste 0 980.7 -0.2 87
2019-11-10 21:00:00 4.5 9 Noroeste 34 Noroeste 0 981.5 1.1 86
2019-11-10 20:00:00 5.4 28 Oeste 44 Oeste 0 981.2 1 81
2019-11-10 19:00:00 5.8 30 Oeste 43 Oeste 0 980.9 1.4 82
2019-11-10 18:00:00 5.8 31 Oeste 40 Oeste 0 980.4 1.1 82
2019-11-10 17:00:00 6.5 28 Noroeste 45 Oeste 0 980.2 1 82
2019-11-10 16:00:00 6.9 30 Noroeste 50 Noroeste 0.2 979.5 0 84
2019-11-10 15:00:00 7.5 35 Noroeste 51 Oeste 0 979.3 -1 78
2019-11-10 14:00:00 7.6 32 Oeste 46 Oeste 0 979.2 -1.2 78
2019-11-10 13:00:00 7 30 Oeste 43 Oeste 0 979.5 -0.6 83
2019-11-10 12:00:00 6.2 25 Noroeste 42 Noroeste 0.4 980.3 -0.1 89
2019-11-10 11:00:00 6.5 27 Oeste 43 Oeste 0 980.4 0.5 86
2019-11-10 10:00:00 6.4 15 Noroeste 27 Noroeste 0 980.1 0.4 87
2019-11-10 09:00:00 5.2 23 Noroeste 40 Oeste 0.6 980.4 0.7 91
2019-11-10 08:00:00 5.2 31 Oeste 43 Oeste 0.2 979.9 0.1 91
2019-11-10 07:00:00 5 36 Noroeste 55 Oeste 0.6 979.7 0.2 90
2019-11-10 06:00:00 5.7 20 Oeste 43 Oeste 0.2 979.7 0.2 86
2019-11-10 05:00:00 6.1 31 Oeste 44 Oeste 0.4 979.8 0.6 85
2019-11-10 04:00:00 6.8 27 Oeste 42 Oeste 0 979.5 0.5 81
2019-11-10 03:00:00 6.8 19 Noroeste 38 Oeste 0 979.5 0.2 81
2019-11-10 02:00:00 7.3 25 Oeste 38 Noroeste 0 979.2 0.7 82
2019-11-10 01:00:00 7.4 21 Oeste 32 Oeste 0 979 0 82
2019-11-10 00:00:00 7.5 16 Noroeste 38 Oeste 0 979.3 1.2 87
2019-11-09 23:00:00 7.8 22 Noroeste 51 Noroeste 2.4 978.5 0 91
2019-11-09 22:00:00 8.7 27 Noroeste 44 Noroeste 5.6 979 0.1 94
2019-11-09 21:00:00 9.4 5 Oeste 10 Oeste 0.4 978.1 -0.5 88
2019-11-09 20:00:00 9.8 8 Sudeste 9 Sudeste 0 978.5 -0.4 85
2019-11-09 19:00:00 10.3 5 Sur 6 Sudeste 0 978.9 -0.1 82
2019-11-09 18:00:00 10.8 3 Sur 10 Norte 0 978.6 -1.3 78
2019-11-09 17:00:00 11 9 Norte 12 Norte 0 978.9 -1.5 75
2019-11-09 16:00:00 11.4 6 Noroeste 20 Noroeste 0 979 -2.3 67
2019-11-09 15:00:00 11.2 16 Noroeste 31 Noroeste 0 979.9 -2 68
2019-11-09 14:00:00 11.2 21 Noroeste 35 Oeste 0 980.4 -2 67
2019-11-09 13:00:00 12.6 25 Noroeste 37 Noroeste 0 981.3 -1.5 58
2019-11-09 12:00:00 12 18 Noroeste 30 Noroeste 0 981.9 -1.1 60
2019-11-09 11:00:00 10.5 20 Noroeste 29 Noroeste 0 982.4 -0.5 65
2019-11-09 10:00:00 8.8 16 Noroeste 35 Oeste 0 982.8 0.3 72
2019-11-09 09:00:00 8.3 23 Noroeste 31 Noroeste 0 983 0.5 73
2019-11-09 08:00:00 7.5 20 Noroeste 50 Oeste 0 982.9 1 78
2019-11-09 07:00:00 8.1 33 Oeste 53 Oeste 0 982.5 0.2 74
2019-11-09 06:00:00 8.1 33 Oeste 50 Oeste 0 982.5 0.9 76
2019-11-09 05:00:00 7.9 34 Oeste 49 Oeste 0 981.9 0 76
2019-11-09 04:00:00 7.3 20 Noroeste 43 Oeste 0 982.3 0.1 81
2019-11-09 03:00:00 8 35 Oeste 45 Noroeste 0 981.6 0 75
2019-11-09 02:00:00 7.8 30 Noroeste 42 Oeste 0 981.9 0.5 78
2019-11-09 01:00:00 7.9 29 Oeste 51 Oeste 0.2 982.2 1.3 79
2019-11-09 00:00:00 7.8 28 Noroeste 47 Oeste 0 981.6 1 82
2019-11-08 23:00:00 8.1 35 Oeste 53 Noroeste 0 981.4 1.2 78
2019-11-08 22:00:00 7.7 24 Noroeste 42 Noroeste 1 980.9 1.5 86
2019-11-08 21:00:00 7.9 31 Oeste 49 Oeste 1.4 980.6 1.8 85
2019-11-08 20:00:00 7.4 30 Oeste 50 Noroeste 2.8 980.2 2.3 91
2019-11-08 19:00:00 7.1 29 Oeste 57 Oeste 4.6 979.4 2.3 93
2019-11-08 18:00:00 7.3 33 Oeste 48 Oeste 1.4 978.8 2.3 88
2019-11-08 17:00:00 6.8 32 Oeste 66 Oeste 2 977.9 2.4 92
2019-11-08 16:00:00 7.2 35 Oeste 63 Oeste 1.6 977.1 1.6 86
2019-11-08 15:00:00 7.4 38 Oeste 78 Oeste 2 976.5 0.5 85
2019-11-08 14:00:00 8.8 41 Oeste 62 Noroeste 0 975.5 -0.5 73
2019-11-08 13:00:00 9.9 36 Oeste 56 Oeste 0.2 975.5 -0.6 62
2019-11-08 12:00:00 10.2 28 Oeste 47 Oeste 0 976 0.5 59
2019-11-08 11:00:00 9.1 17 Oeste 26 Oeste 0 976 1.3 67
2019-11-08 10:00:00 7.6 6 Oeste 14 Noroeste 0 976.1 1.6 76
2019-11-08 09:00:00 6.2 4 Oeste 8 Noroeste 0 975.5 1 83
2019-11-08 08:00:00 4.7 2 Oeste 8 Noroeste 0 974.7 0.7 92
2019-11-08 07:00:00 4.5 7 Sudeste 8 Sudeste 0 974.5 1 97
2019-11-08 06:00:00 4.1 3 Este 7 Sudeste 0 974.5 1 99
2019-11-08 05:00:00 3.5 4 Sur 8 Noroeste 0 974 0.4 99
2019-11-08 04:00:00 3 5 Nordeste 8 Sudeste 0 973.5 -0.4 99
2019-11-08 03:00:00 2.7 5 Este 10 Noroeste 0 973.5 -0.5 98
2019-11-08 02:00:00 3.2 4 Norte 7 Noroeste 0 973.6 -0.6 96
2019-11-08 01:00:00 4.7 3 Norte 5 Oeste 0 973.9 -0.2 95
2019-11-08 00:00:00 5.8 4 Oeste 9 Oeste 0 974 0 91
2019-11-07 23:00:00 6.4 5 Oeste 7 Sudoeste 0 974.2 0.5 91
2019-11-07 22:00:00 6.5 3 Sur 12 Sudeste 0 974.1 0.7 89
2019-11-07 21:00:00 6.5 10 Norte 34 Norte 0.2 974 1.1 86
2019-11-07 20:00:00 7.5 21 Noroeste 38 Noroeste 0 973.7 1 81
2019-11-07 19:00:00 8.5 18 Sudoeste 53 Sudoeste 1.2 973.4 0.4 82
2019-11-07 18:00:00 9.5 4 Sudoeste 16 Sur 0 972.9 -0.7 78
2019-11-07 17:00:00 11.4 11 Sur 18 Oeste 0 972.7 -1.3 70
2019-11-07 16:00:00 12.5 8 Noroeste 28 Noroeste 0 973 -2.1 59
2019-11-07 15:00:00 12.9 14 Noroeste 30 Noroeste 0 973.6 -1.9 56
2019-11-07 14:00:00 12.3 19 Noroeste 30 Noroeste 0 974 -1.3 60
2019-11-07 13:00:00 11.3 15 Noroeste 32 Noroeste 0 975.1 0.8 75
2019-11-07 12:00:00 10.5 18 Noroeste 24 Oeste 0.2 975.5 1.5 78
2019-11-07 11:00:00 9.6 17 Noroeste 32 Noroeste 0 975.3 1.5 88
2019-11-07 10:00:00 9.7 19 Noroeste 28 Noroeste 0.2 974.3 1 94
2019-11-07 09:00:00 9.9 12 Oeste 16 Oeste 0.4 974 0.6 96
2019-11-07 08:00:00 9.4 7 Oeste 17 Sudoeste 0.8 973.8 0.8 97
2019-11-07 07:00:00 9.3 4 Oeste 11 Norte 1.4 973.3 -0.1 95
2019-11-07 06:00:00 9.3 13 Noroeste 16 Noroeste 0.2 973.4 0.1 91
2019-11-07 05:00:00 8.2 7 Sudeste 10 Sudeste 0 973 -0.7 90
2019-11-07 04:00:00 8.8 5 Oeste 19 Este 0 973.4 -0.9 88
2019-11-07 03:00:00 8.6 17 Este 22 Este 0 973.3 -1.3 87
2019-11-07 02:00:00 8.8 16 Este 24 Este 0 973.7 -1.5 85
2019-11-07 01:00:00 9.3 18 Este 22 Este 0.2 974.3 -1.5 84
2019-11-07 00:00:00 10 15 Este 20 Este 0 974.6 -1.5 77
2019-11-06 23:00:00 9.3 12 Este 20 Este 0 975.2 -1.6 79
2019-11-06 22:00:00 8.7 7 Sudeste 13 Este 0 975.8 -1.1 81
2019-11-06 21:00:00 8.9 8 Este 11 Este 0 976.1 -0.6 81
2019-11-06 20:00:00 9.5 8 Sudeste 11 Sudeste 0 976.8 -0.2 78
2019-11-06 19:00:00 10.9 8 Sudeste 9 Sudeste 0 976.9 -0.5 73
2019-11-06 18:00:00 13.1 5 Nordeste 16 Noroeste 0 976.7 -1.2 63
2019-11-06 17:00:00 14.5 14 Noroeste 23 Norte 0 977 -1.6 57
2019-11-06 16:00:00 14.4 16 Noroeste 30 Noroeste 0 977.4 -1.5 56
2019-11-06 15:00:00 14.9 17 Noroeste 34 Noroeste 0 977.9 -1.9 55
2019-11-06 14:00:00 14.9 27 Noroeste 35 Noroeste 0 978.6 -1.1 54
2019-11-06 13:00:00 14 23 Noroeste 35 Noroeste 0 978.9 -0.7 58
2019-11-06 12:00:00 12.7 17 Oeste 35 Oeste 0 979.8 0.6 65
2019-11-06 11:00:00 12.3 26 Oeste 39 Oeste 0 979.7 1.1 68
2019-11-06 10:00:00 11.3 26 Oeste 42 Oeste 0 979.6 1.5 71
2019-11-06 09:00:00 10.5 26 Oeste 41 Noroeste 0 979.2 1.5 74
2019-11-06 08:00:00 10 28 Oeste 45 Oeste 0 978.6 1.2 77
2019-11-06 07:00:00 9.5 26 Oeste 45 Oeste 0 978.1 0.9 79
2019-11-06 06:00:00 9.8 30 Oeste 48 Noroeste 0 977.7 0.5 77
2019-11-06 05:00:00 10.8 31 Oeste 45 Oeste 0 977.4 0.1 72
2019-11-06 04:00:00 10.5 27 Oeste 46 Noroeste 0 977.2 -0.2 76
2019-11-06 03:00:00 10.1 25 Oeste 44 Noroeste 0 977.2 0.5 81
2019-11-06 02:00:00 9.8 21 Oeste 35 Noroeste 0 977.3 0.5 82
2019-11-06 01:00:00 9.6 17 Noroeste 39 Oeste 0 977.4 1 82
2019-11-06 00:00:00 9.8 29 Oeste 45 Oeste 0.2 976.7 0.9 80
2019-11-05 23:00:00 9.9 30 Oeste 46 Oeste 0 976.8 1.6 81
2019-11-05 22:00:00 10.4 28 Oeste 50 Oeste 0.2 976.4 1.8 74
2019-11-05 21:00:00 10 32 Oeste 45 Oeste 0 975.8 2.5 78
2019-11-05 20:00:00 11.1 24 Oeste 39 Noroeste 0 975.2 2.7 68
2019-11-05 19:00:00 11.3 17 Oeste 41 Oeste 0 974.6 2.8 66
2019-11-05 18:00:00 12.5 22 Oeste 45 Oeste 0 973.3 1.7 60
2019-11-05 17:00:00 13.4 36 Oeste 55 Oeste 0 972.5 0.8 56
2019-11-05 16:00:00 14.1 35 Oeste 63 Oeste 0.2 971.8 -0.1 55
2019-11-05 15:00:00 14.2 42 Oeste 57 Noroeste 0 971.6 -0.8 60
2019-11-05 14:00:00 13.5 25 Noroeste 33 Noroeste 0 971.7 -0.2 62
2019-11-05 13:00:00 12.5 3 Sudoeste 21 Noroeste 0 971.9 0.3 61
2019-11-05 12:00:00 12.6 9 Noroeste 18 Noroeste 0 972.4 1 66
2019-11-05 11:00:00 11.6 5 Nordeste 9 Nordeste 0 971.9 1.2 71
2019-11-05 10:00:00 10.8 3 Nordeste 13 Este 0 971.6 1.5 74
2019-11-05 09:00:00 7.9 8 Este 11 Este 0 971.4 1.6 93
2019-11-05 08:00:00 5.7 3 Nordeste 12 Este 0 970.7 1.2 92
2019-11-05 07:00:00 5.9 4 Oeste 9 Norte 0 970.1 0.8 94
2019-11-05 06:00:00 6.5 3 Oeste 8 Sur 0 969.8 0.4 91
2019-11-05 05:00:00 8 9 Norte 18 Norte 0 969.5 0 88
2019-11-05 04:00:00 6.9 4 Sudeste 15 Norte 0 969.3 -0.4 96
2019-11-05 03:00:00 7.1 6 Nordeste 13 Noroeste 0 969.4 0.1 97
2019-11-05 02:00:00 7.8 3 Sur 9 Norte 0 969.5 0.1 94
2019-11-05 01:00:00 8.5 4 Sur 13 Sudoeste 0 969.7 0.4 91
2019-11-05 00:00:00 9.2 5 Sudoeste 13 Norte 0 969.3 -0.1 89
2019-11-04 23:00:00 10.3 9 Noroeste 31 Noroeste 0 969.4 1.4 87
2019-11-04 22:00:00 11.4 11 Norte 22 Norte 0 969.3 1.3 86
2019-11-04 21:00:00 12.5 21 Noroeste 33 Noroeste 0.2 969.4 1.3 87
2019-11-04 20:00:00 13.5 5 Noroeste 13 Sur 0 968 -0.4 89
2019-11-04 19:00:00 14.2 11 Sudeste 12 Sudeste 0.2 968 0.5 89
2019-11-04 18:00:00 14.8 10 Sur 23 Noroeste 1.8 968.1 1 90
2019-11-04 17:00:00 15 21 Noroeste 27 Noroeste 1.8 968.4 0.7 89
2019-11-04 16:00:00 17.5 19 Noroeste 60 Sudoeste 0 967.5 -1 68
2019-11-04 15:00:00 20.6 41 Sudoeste 67 Sudoeste 0 967.1 -2.2 45
2019-11-04 14:00:00 21.9 39 Sudoeste 59 Sudoeste 0 967.7 -2 41
2019-11-04 13:00:00 20.4 38 Sudoeste 58 Sudoeste 0 968.5 -1.6 45
2019-11-04 12:00:00 20.4 42 Sudoeste 59 Sudoeste 0 969.3 -1.2 46
2019-11-04 11:00:00 19.3 37 Sudoeste 56 Sudoeste 0 969.7 -0.6 50
2019-11-04 10:00:00 18.6 37 Sudoeste 51 Sudoeste 0 970.1 -0.2 52
2019-11-04 09:00:00 17.1 32 Sudoeste 46 Sudoeste 0 970.5 0.2 58
2019-11-04 08:00:00 15.8 21 Sur 33 Sur 0 970.3 0 59
2019-11-04 07:00:00 13.4 8 Sur 13 Sudoeste 0 970.3 -0.4 68
2019-11-04 06:00:00 11.9 8 Sur 12 Sur 0 970.3 -0.6 79
2019-11-04 05:00:00 12.8 5 Sudeste 12 Norte 0 970.3 -1 76
2019-11-04 04:00:00 13.1 -- -- -- -- 0 970.7 -0.9 75
2019-11-04 03:00:00 12.2 -- -- -- -- 0 970.9 -1 76
2019-11-04 02:00:00 11.1 -- -- -- -- 0 971.3 -0.9 75
2019-11-04 01:00:00 12.8 -- -- -- -- 0 971.6 -0.7 68
2019-11-04 00:00:00 12.9 -- -- -- -- 0 971.9 -0.1 65
2019-11-03 23:00:00 12.2 -- -- -- -- 0 972.2 0.1 67
2019-11-03 22:00:00 13 -- -- -- -- 0 972.3 0 59
2019-11-03 21:00:00 12.7 4 Nordeste 9 Sudeste 0 972 0.7 59
2019-11-03 20:00:00 13.8 3 Sudoeste 15 Noroeste 0 972.1 1.6 52
2019-11-03 19:00:00 14.4 14 Noroeste 26 Oeste 0 972.3 1.9 48
2019-11-03 18:00:00 16.2 13 Oeste 30 Oeste 0 971.3 1.7 39
2019-11-03 17:00:00 17.5 23 Oeste 52 Noroeste 0 970.5 0.7 33
2019-11-03 16:00:00 17.8 36 Noroeste 59 Noroeste 0 970.4 0.3 34
2019-11-03 15:00:00 17.5 36 Noroeste 55 Noroeste 0 969.6 -0.2 38
2019-11-03 14:00:00 16.9 32 Noroeste 53 Noroeste 0 969.8 1.2 38
2019-11-03 13:00:00 16.3 36 Oeste 63 Oeste 0 970.1 2.8 38
2019-11-03 12:00:00 14.7 44 Oeste 60 Oeste 0 969.8 3.6 44
2019-11-03 11:00:00 14.5 42 Oeste 62 Oeste 0 968.6 4.2 48
2019-11-03 10:00:00 13.3 37 Noroeste 53 Noroeste 0 967.3 6.2 53
2019-11-03 09:00:00 11.6 14 Oeste 33 Noroeste 0.4 966.2 6.6 76
2019-11-03 08:00:00 10.5 32 Noroeste 91 Noroeste 0 964.4 4.5 82
2019-11-03 07:00:00 13.8 50 Noroeste 73 Noroeste 0.2 961.1 0.3 68
2019-11-03 06:00:00 15.3 23 Sudoeste 49 Sur 0 959.6 -2.7 69
2019-11-03 05:00:00 16.5 31 Sudoeste 49 Sur 0 959.9 -3.3 57
2019-11-03 04:00:00 16.6 37 Sudoeste 54 Sudoeste 0 960.8 -3.2 55
2019-11-03 03:00:00 16.8 24 Sudoeste 41 Sudoeste 0 962.3 -2.3 56
2019-11-03 02:00:00 17.3 27 Sudoeste 42 Sudoeste 0 963.2 -2.2 50
2019-11-03 01:00:00 17.2 26 Sudoeste 47 Sudoeste 0 964 -2.1 51
2019-11-03 00:00:00 17.5 27 Sudoeste 37 Sudoeste 0 964.6 -2.1 49
2019-11-02 23:00:00 18 29 Sudoeste 38 Sudoeste 0 965.4 -1.5 48
2019-11-02 22:00:00 17.4 10 Sudoeste 23 Sudoeste 0 966.1 -2.1 64
2019-11-02 21:00:00 16.7 6 Sudeste 18 Este 0 966.7 -2.1 74
2019-11-02 20:00:00 16.2 12 Este 17 Este 0 966.9 -2.2 81
2019-11-02 19:00:00 16.8 3 Norte 9 Norte 0 968.2 -0.8 80
2019-11-02 18:00:00 17.7 5 Noroeste 12 Norte 0 968.8 -0.7 75
2019-11-02 17:00:00 18.7 8 Norte 23 Norte 0 969.1 -1.1 71
2019-11-02 16:00:00 19.1 14 Norte 22 Norte 0 969 -2.3 69
2019-11-02 15:00:00 20.7 5 Este 21 Este 0 969.5 -2.6 58
2019-11-02 14:00:00 20.2 5 Este 13 Nordeste 0 970.2 -2.1 60
2019-11-02 13:00:00 18.9 11 Norte 23 Norte 0 971.3 -1.4 72
2019-11-02 12:00:00 19.6 9 Noroeste 12 Noroeste 0 972.1 -0.6 64
2019-11-02 11:00:00 19.2 3 Sudoeste 13 Este 0 972.3 -0.6 67
2019-11-02 10:00:00 17.6 11 Este 21 Este 0 972.7 -0.6 76
2019-11-02 09:00:00 16 13 Este 17 Este 0 972.7 -1.1 86
2019-11-02 08:00:00 13.7 10 Nordeste 21 Este 0 972.9 -1.1 92
2019-11-02 07:00:00 12.4 8 Este 9 Sudeste 0 973.3 -1.1 96
2019-11-02 06:00:00 11.6 4 Sudoeste 11 Noroeste 0 973.8 -0.9 97
2019-11-02 05:00:00 11.5 5 Sudeste 13 Nordeste 0.2 974 -1.2 96
2019-11-02 04:00:00 11.9 6 Noroeste 8 Norte 0 974.4 -1.3 96
2019-11-02 03:00:00 13.1 4 Noroeste 10 Noroeste 0 974.7 -1.3 96
2019-11-02 02:00:00 13.3 2 Norte 8 Norte 0 975.2 -1.4 95
2019-11-02 01:00:00 13.5 3 Norte 11 Norte 0 975.7 -1.1 94
2019-11-02 00:00:00 14.4 3 Sudeste 8 Noroeste 0 976 -0.7 93
2019-11-01 23:00:00 15.4 4 Nordeste 11 Sudeste 0 976.6 -0.5 91
2019-11-01 22:00:00 16.3 5 Este 11 Este 0 976.8 -0.1 90
2019-11-01 21:00:00 16.9 6 Noroeste 9 Noroeste 0 976.7 -0.2 89
2019-11-01 20:00:00 17.8 3 Oeste 14 Sur 0.4 977.1 -0.5 86
2019-11-01 19:00:00 18.2 13 Sudeste 15 Este 0.2 976.9 -1.3 80
2019-11-01 18:00:00 20.1 12 Sudeste 19 Este 0 976.9 -2.1 71
2019-11-01 17:00:00 21.2 10 Este 14 Sudeste 0 977.6 -2.3 65
2019-11-01 16:00:00 21.9 8 Sudeste 13 Este 0 978.2 -3 59
2019-11-01 15:00:00 22 4 Sudeste 14 Nordeste 0 979 -3.1 59
2019-11-01 14:00:00 21.5 4 Nordeste 9 Nordeste 0 979.9 -2.7 60
2019-11-01 13:00:00 21.1 4 Sudeste 9 Este 0 981.2 -1.7 61
2019-11-01 12:00:00 19.2 0 Calma 6 Norte 0 982.1 -1.4 65
2019-11-01 11:00:00 18.6 2 Sudoeste 6 Sudoeste 0 982.6 -0.8 65
2019-11-01 10:00:00 16.8 2 Sur 6 Nordeste 0 982.9 -0.1 74
2019-11-01 09:00:00 13.4 6 Nordeste 8 Norte 0 983.5 -0.3 89
2019-11-01 08:00:00 12.8 3 Sudeste 6 Nordeste 0 983.4 -0.6 89
2019-11-01 07:00:00 12.6 3 Este 6 Sudoeste 0 983 -1.1 89
2019-11-01 06:00:00 12.4 3 Sur 8 Sudeste 0 983.8 -1 90
2019-11-01 05:00:00 12.3 4 Sudeste 8 Sudeste 0 984 -0.8 89
2019-11-01 04:00:00 12.5 0 Calma 7 Sur 0 984.1 -1.3 88
2019-11-01 03:00:00 12.3 5 Noroeste 7 Noroeste 0 984.8 -1.1 89
2019-11-01 02:00:00 12.2 2 Noroeste 6 Norte 0 984.8 -1.4 88
2019-11-01 01:00:00 12.1 2 Sur 6 Sur 0 985.4 -1.1 86
2019-11-01 00:00:00 12.3 3 Sur 4 Sur 0 985.9 -0.9 84
2019-10-31 23:00:00 13.1 2 Sudeste 5 Nordeste 0 986.2 -0.6 83
2019-10-31 22:00:00 14.4 0 Calma 10 Sudoeste 0 986.5 0.2 79
2019-10-31 21:00:00 14.4 6 Oeste 13 Sudoeste 0 986.8 0.6 78
2019-10-31 20:00:00 16 3 Oeste 12 Norte 0 986.8 0.8 71
2019-10-31 19:00:00 16.7 10 Norte 17 Norte 0 986.3 0.5 68
2019-10-31 18:00:00 18.4 15 Noroeste 26 Noroeste 0 986.2 0.3 62
2019-10-31 17:00:00 20.6 21 Noroeste 31 Noroeste 0 986 -0.3 53
2019-10-31 16:00:00 20.9 21 Noroeste 38 Oeste 0 985.8 -0.9 52
2019-10-31 15:00:00 20.9 28 Noroeste 40 Noroeste 0 985.9 -1.5 55
2019-10-31 14:00:00 20.6 23 Noroeste 32 Oeste 0 986.3 -1 60
2019-10-31 13:00:00 19.7 21 Oeste 33 Noroeste 0 986.7 -0.6 67
2019-10-31 12:00:00 19.3 22 Oeste 31 Oeste 0 987.4 0.9 68
2019-10-31 11:00:00 18.3 23 Noroeste 33 Oeste 0 987.3 1.4 73
2019-10-31 10:00:00 16.6 18 Noroeste 23 Noroeste 0 987.3 1.8 88
2019-10-31 09:00:00 15.5 13 Oeste 20 Noroeste 0 986.5 1.1 93
2019-10-31 08:00:00 14.7 9 Noroeste 12 Noroeste 0 985.9 0.7 93
2019-10-31 07:00:00 15.3 3 Nordeste 13 Oeste 0 985.5 0.5 95
2019-10-31 06:00:00 15.4 9 Oeste 17 Oeste 0 985.4 0.4 95
2019-10-31 05:00:00 15.5 9 Oeste 26 Noroeste 0.6 985.2 0.2 94
2019-10-31 04:00:00 15.8 21 Noroeste 33 Noroeste 0.2 985 -0.3 92
2019-10-31 03:00:00 14.9 5 Sur 8 Sur 0 985 -0.4 84
2019-10-31 02:00:00 14.6 4 Sudeste 5 Sudeste 0 985 -0.4 83
2019-10-31 01:00:00 15 0 Calma 5 Norte 0 985.3 -0.1 80
2019-10-31 00:00:00 15.1 2 Norte 6 Sur 0 985.4 0.2 82
2019-10-30 23:00:00 15.6 4 Sur 5 Sur 0 985.4 0.5 80
2019-10-30 22:00:00 16 3 Sudoeste 8 Sudoeste 0 985.4 0.7 77
2019-10-30 21:00:00 16.1 5 Norte 7 Norte 0 985.2 0.7 76
2019-10-30 20:00:00 17.3 4 Sur 8 Sur 0 984.9 0.6 71
2019-10-30 19:00:00 18.1 3 Norte 12 Noroeste 0 984.7 0.3 68
2019-10-30 18:00:00 19.3 7 Este 12 Este 0 984.5 0.1 61
2019-10-30 17:00:00 20.1 10 Este 14 Este 0 984.3 -0.5 59
2019-10-30 16:00:00 21 8 Este 14 Este 0 984.4 -1.2 53
2019-10-30 15:00:00 21.6 10 Este 16 Este 0 984.4 -1.8 46
2019-10-30 14:00:00 21.6 4 Este 9 Este 0 984.8 -1.8 44
2019-10-30 13:00:00 21.1 3 Sudeste 6 Sudeste 0 985.6 -1.2 49
2019-10-30 12:00:00 19.9 4 Sudoeste 12 Oeste 0 986.2 -0.2 55
2019-10-30 11:00:00 17.8 5 Noroeste 10 Noroeste 0 986.6 0.8 67
2019-10-30 10:00:00 15.3 3 Nordeste 6 Nordeste 0 986.8 1.4 78
2019-10-30 09:00:00 12.2 3 Noroeste 4 Norte 0 986.4 1.2 89
2019-10-30 08:00:00 9.6 3 Noroeste 4 Noroeste 0 985.8 0.8 90
2019-10-30 07:00:00 10.1 2 Sudoeste 4 Oeste 0 985.4 0.3 89
2019-10-30 06:00:00 11.3 2 Noroeste 3 Noroeste 0 985.2 0 89
2019-10-30 05:00:00 11.8 2 Este 5 Noroeste 0 985 -0.3 89
2019-10-30 04:00:00 12.4 4 Oeste 10 Sudoeste 0 985.1 0.1 87
2019-10-30 03:00:00 13.3 6 Sudoeste 9 Sur 0 985.2 0.6 86
2019-10-30 02:00:00 13.6 4 Sudoeste 9 Sur 0 985.3 0.7 85
2019-10-30 01:00:00 14.5 3 Noroeste 10 Sudoeste 0 985 0.8 82
2019-10-30 00:00:00 15.8 4 Sudoeste 7 Sudoeste 0 984.6 0.8 79
2019-10-29 23:00:00 16.5 6 Noroeste 10 Noroeste 0 984.6 1.3 77
2019-10-29 22:00:00 17.6 7 Noroeste 17 Oeste 0 984.2 1.6 70
2019-10-29 21:00:00 17.2 2 Sur 5 Sudeste 0 983.8 1.6 75
2019-10-29 20:00:00 17.9 3 Sudoeste 6 Este 0 983.3 1.5 72
2019-10-29 19:00:00 19.1 4 Sur 9 Oeste 0 982.6 1 66
2019-10-29 18:00:00 20.7 5 Noroeste 17 Oeste 0 982.2 0.4 61
2019-10-29 17:00:00 22.7 7 Oeste 12 Oeste 0 981.8 -0.1 51
2019-10-29 16:00:00 22.5 7 Noroeste 15 Noroeste 0 981.6 -0.8 52
2019-10-29 15:00:00 22.3 6 Oeste 14 Noroeste 0 981.8 -1.2 57
2019-10-29 14:00:00 21.9 8 Noroeste 15 Noroeste 0 981.9 -1.3 57
2019-10-29 13:00:00 20.9 6 Noroeste 15 Noroeste 0 982.4 -0.6 60
2019-10-29 12:00:00 19 2 Este 9 Oeste 0 983 0.2 70
2019-10-29 11:00:00 16.9 0 Calma 4 Sudoeste 0 983.2 1.2 79
2019-10-29 10:00:00 12.1 2 Este 5 Sudeste 0 983 1.4 97
2019-10-29 09:00:00 10.4 0 Calma 4 Sudoeste 0 982.8 1.5 98
2019-10-29 08:00:00 9.3 0 Calma 4 Norte 0 982 0.9 98
2019-10-29 07:00:00 9.2 0 Calma 5 Este 0 981.6 0.6 97
2019-10-29 06:00:00 9.5 4 Sudeste 6 Sudeste 0 981.3 0.1 96
2019-10-29 05:00:00 10.2 5 Norte 6 Norte 0 981.1 -0.2 92
2019-10-29 04:00:00 10.9 5 Sudeste 6 Sur 0 981 -0.2 91
2019-10-29 03:00:00 11.3 0 Calma 5 Noroeste 0 981.2 -0.2 89
2019-10-29 02:00:00 11.4 4 Noroeste 8 Noroeste 0 981.3 0 89
2019-10-29 01:00:00 12.1 4 Sudeste 8 Norte 0 981.2 -0.2 87
2019-10-29 00:00:00 12.2 7 Noroeste 17 Este 0 981.4 0.2 88
2019-10-28 23:00:00 13.2 10 Este 15 Este 0 981.3 0.1 87
2019-10-28 22:00:00 13.3 3 Nordeste 7 Este 0 981.4 0.4 84
2019-10-28 21:00:00 14.2 5 Sudeste 6 Sudeste 0 981.2 0.6 82
2019-10-28 20:00:00 15.7 3 Norte 5 Nordeste 0 981.2 0.7 80
2019-10-28 19:00:00 17.7 4 Sudoeste 9 Sudoeste 0 981 0.1 74
2019-10-28 18:00:00 19.3 5 Sur 16 Este 0 980.6 -0.5 67
2019-10-28 17:00:00 21.1 13 Este 19 Este 0 980.5 -1.2 56
2019-10-28 16:00:00 21.5 11 Este 17 Este 0 980.9 -1.5 53
2019-10-28 15:00:00 21.1 11 Este 27 Este 0 981.1 -2.2 55
2019-10-28 14:00:00 20 11 Sudeste 18 Sudeste 0 981.7 -1.5 61
2019-10-28 13:00:00 18.1 8 Este 13 Este 0 982.4 -0.9 67
2019-10-28 12:00:00 17.3 3 Sudoeste 9 Sudoeste 0 983.3 0.3 70
2019-10-28 11:00:00 15.1 4 Nordeste 9 Sudoeste 0 983.2 0.7 81
2019-10-28 10:00:00 13.5 2 Sur 12 Sur 0 983.3 0.9 87
2019-10-28 09:00:00 12.9 5 Norte 9 Oeste 0 983 0.1 88
2019-10-28 08:00:00 12.8 9 Este 10 Este 0 982.5 -0.3 88
2019-10-28 07:00:00 12.6 2 Sudeste 10 Nordeste 0 982.4 -0.9 87
2019-10-28 06:00:00 13.2 3 Este 13 Oeste 0 982.9 -0.8 85
2019-10-28 05:00:00 13.9 11 Este 15 Este 0 982.8 -1 83
2019-10-28 04:00:00 13.7 7 Nordeste 11 Este 0 983.3 -0.7 83
2019-10-28 03:00:00 14.4 3 Este 14 Este 0 983.7 -0.7 79
2019-10-28 02:00:00 14.5 11 Sudeste 17 Este 0 983.8 -0.6 80
2019-10-28 01:00:00 14.7 12 Este 18 Este 0 984 -0.9 79
2019-10-28 00:00:00 14.9 10 Este 19 Este 0 984.4 -0.3 78
2019-10-27 23:00:00 15.4 18 Este 21 Este 0 984.4 -0.2 75
2019-10-27 22:00:00 15.8 11 Este 19 Este 0 984.9 0.7 73
2019-10-27 21:00:00 16.3 12 Este 14 Este 0 984.7 0.7 71
2019-10-27 20:00:00 16.7 4 Este 13 Este 0 984.6 0.6 71
2019-10-27 19:00:00 17.7 4 Sudeste 6 Sudeste 0 984.2 0.1 68
2019-10-27 18:00:00 19.4 7 Sudeste 12 Este 0 984 -0.5 60
2019-10-27 17:00:00 20.6 11 Este 19 Este 0 984 -1.2 55
2019-10-27 16:00:00 20.9 15 Este 28 Este 0 984.1 -1.9 54
2019-10-27 15:00:00 21.7 9 Sudeste 19 Este 0 984.5 -2.2 50
2019-10-27 14:00:00 20.6 11 Sudoeste 19 Sudoeste 0 985.2 -2.1 56
2019-10-27 13:00:00 18.9 10 Sudoeste 15 Sudoeste 0 986 -1.6 61
2019-10-27 12:00:00 17.4 8 Sur 13 Sudeste 0 986.7 -0.6 64
2019-10-27 11:00:00 16.3 6 Sur 16 Este 0 987.3 0.7 68
2019-10-27 10:00:00 13.6 0 Calma 6 Oeste 0 987.6 1.3 78
2019-10-27 09:00:00 10.7 2 Norte 6 Noroeste 0 987.3 1 91
2019-10-27 08:00:00 8.3 3 Este 5 Este 0 986.6 0.5 96
2019-10-27 07:00:00 8.8 2 Sur 5 Sur 0 986.3 0.2 91
2019-10-27 06:00:00 9.8 0 Calma 13 Este 0 986.3 0.3 87
2019-10-27 05:00:00 10.1 8 Este 12 Este 0 986.1 -0.1 86
2019-10-27 04:00:00 11.9 4 Sudeste 17 Sudeste 0 986.1 -0.2 82
2019-10-27 03:00:00 11.3 14 Sudeste 21 Este 0 986 -0.5 85
2019-10-27 02:00:00 12 17 Este 22 Este 0 986.2 -0.4 82
2019-10-27 01:00:00 12.6 15 Este 22 Este 0 986.5 0.9 82
2019-10-27 00:00:00 12.8 11 Este 22 Este 0 986.6 1.3 79
2019-10-26 23:00:00 13.7 19 Este 23 Este 0 986.1 1.4 76
2019-10-26 22:00:00 14.5 18 Este 23 Este 0 985.6 1.5 70
2019-10-26 21:00:00 15.9 15 Este 20 Este 0 985.3 1.5 68
2019-10-26 20:00:00 17.4 17 Este 19 Este 0 984.7 0.7 65
2019-10-26 19:00:00 20.4 -- -- -- -- 0 984.1 -0.4 57
2019-10-26 18:00:00 22.1 15 Este 26 Este 0 983.8 -1.4 48
2019-10-26 17:00:00 22.2 19 Este 27 Este 0 984 -1.9 50
2019-10-26 16:00:00 22.1 21 Este 31 Este 0 984.5 -2.5 51
2019-10-26 15:00:00 21.6 15 Este 28 Este 0 985.2 -2.2 53
2019-10-26 14:00:00 20.4 18 Este 23 Este 0 985.9 -1.3 57
2019-10-26 13:00:00 18 6 Sur 14 Sudeste 0 987 0 68
2019-10-26 12:00:00 16.1 5 Sudoeste 19 Este 0 987.4 0.8 74
2019-10-26 11:00:00 14.3 5 Sudeste 14 Este 0 987.2 1.1 81
2019-10-26 10:00:00 10.8 3 Sudeste 7 Este 0 987 1.1 92
2019-10-26 09:00:00 8.3 3 Norte 11 Sudeste 0 986.6 0.9 97
2019-10-26 08:00:00 8.1 8 Sudeste 10 Sudeste 0 986.1 0.5 94
2019-10-26 07:00:00 9.3 5 Este 7 Este 0 985.9 0.2 92
2019-10-26 06:00:00 10.3 8 Este 14 Este 0 985.7 -0.1 91
2019-10-26 05:00:00 10.9 10 Este 17 Este 0 985.6 -0.4 89
2019-10-26 04:00:00 11.5 12 Este 15 Este 0 985.7 -0.4 89
2019-10-26 03:00:00 11.9 8 Este 21 Este 0 985.8 -0.3 88
2019-10-26 02:00:00 12.5 18 Este 24 Este 0 986 0.1 88
2019-10-26 01:00:00 12.7 19 Este 23 Este 0 986.1 0.3 87
2019-10-26 00:00:00 11.7 6 Sudeste 9 Sudeste 0 986.1 0.4 88
2019-10-25 23:00:00 13 4 Noroeste 6 Noroeste 0 985.9 0.6 85
2019-10-25 22:00:00 14.3 2 Sur 5 Este 0 985.8 0.9 81
2019-10-25 21:00:00 16.4 3 Sur 5 Sudoeste 0 985.7 0.9 76
2019-10-25 20:00:00 17.8 3 Sudoeste 10 Sudoeste 0 985.3 0.4 71
2019-10-25 19:00:00 20.5 8 Oeste 11 Oeste 0 984.9 -0.4 59
2019-10-25 18:00:00 22.5 3 Noroeste 12 Oeste 0 984.8 -1.2 48
2019-10-25 17:00:00 22.6 6 Noroeste 15 Noroeste 0 984.9 -2 49
2019-10-25 16:00:00 21.7 8 Noroeste 16 Noroeste 0 985.3 -2.7 51
2019-10-25 15:00:00 20.5 10 Noroeste 19 Noroeste 0 986 -2.4 56
2019-10-25 14:00:00 19 13 Noroeste 19 Noroeste 0 986.9 -1.8 60
2019-10-25 13:00:00 17.3 12 Noroeste 18 Oeste 0 988 -0.9 69
2019-10-25 12:00:00 15.3 9 Oeste 13 Oeste 0 988.4 0 76
2019-10-25 11:00:00 12.3 2 Oeste 8 Oeste 0 988.7 0.5 89
2019-10-25 10:00:00 9.5 3 Noroeste 10 Este 0 988.9 0.7 97
2019-10-25 09:00:00 7.1 3 Sur 6 Sudeste 0.2 988.4 0.6 98
2019-10-25 08:00:00 6.9 4 Oeste 5 Oeste 0 988.2 0.6 96
2019-10-25 07:00:00 7.4 2 Noroeste 5 Noroeste 0 988.2 0.4 96
2019-10-25 06:00:00 8.3 0 Calma 6 Noroeste 0 987.8 0.1 96
2019-10-25 05:00:00 8.4 3 Sudoeste 8 Sudoeste 0 987.6 -0.1 94
2019-10-25 04:00:00 8.7 0 Calma 8 Nordeste 0 987.8 0.3 93
2019-10-25 03:00:00 9 4 Sudeste 7 Norte 0 987.7 0.3 93
2019-10-25 02:00:00 9.4 3 Noroeste 6 Noroeste 0 987.7 0.7 91
2019-10-25 01:00:00 10.4 0 Calma 5 Sudeste 0 987.5 1 88
2019-10-25 00:00:00 11.9 6 Nordeste 8 Norte 0 987.4 1.7 85
2019-10-24 23:00:00 13.7 2 Sudeste 5 Noroeste 0 987 1.8 78
2019-10-24 22:00:00 14 7 Noroeste 14 Noroeste 0 986.5 2.4 77
2019-10-24 21:00:00 13.9 9 Noroeste 12 Noroeste 0 985.7 2.1 77
2019-10-24 20:00:00 13.5 6 Noroeste 15 Oeste 0 985.2 1.9 75
2019-10-24 19:00:00 15 10 Oeste 22 Noroeste 0 984.1 1.6 68
2019-10-24 18:00:00 16.3 16 Noroeste 25 Noroeste 0 983.6 0.7 61
2019-10-24 17:00:00 15.7 20 Noroeste 28 Noroeste 0 983.3 1 59
2019-10-24 16:00:00 16.5 7 Noroeste 29 Noroeste 0 982.5 0.2 57
2019-10-24 15:00:00 15.9 16 Noroeste 22 Noroeste 0 982.9 0.3 59
2019-10-24 14:00:00 16 11 Oeste 22 Oeste 0 982.3 0.2 55
2019-10-24 13:00:00 15.3 5 Oeste 18 Oeste 0 982.3 1.2 59
2019-10-24 12:00:00 13.8 11 Oeste 21 Oeste 0 982.6 2.3 66
2019-10-24 11:00:00 12 12 Noroeste 18 Noroeste 0 982.1 2.6 74
2019-10-24 10:00:00 11.4 12 Noroeste 17 Noroeste 0 981.1 2.1 80
2019-10-24 09:00:00 9.9 10 Noroeste 19 Noroeste 0 980.3 2.5 86
2019-10-24 08:00:00 10.2 14 Noroeste 20 Noroeste 0 979.5 2.4 85
2019-10-24 07:00:00 10.5 15 Noroeste 29 Oeste 0 979 2.5 83
2019-10-24 06:00:00 10.8 18 Oeste 29 Noroeste 0 977.8 1.6 83
2019-10-24 05:00:00 11.1 18 Noroeste 28 Oeste 0 977.1 1.4 84
2019-10-24 04:00:00 11.7 14 Oeste 24 Oeste 0 976.5 1.4 84
2019-10-24 03:00:00 11.6 6 Oeste 12 Oeste 0 976.2 1.9 89
2019-10-24 02:00:00 11.8 2 Nordeste 23 Oeste 0 975.7 2 87
2019-10-24 01:00:00 11.7 13 Oeste 24 Oeste 0 975.1 2 90
2019-10-24 00:00:00 10 4 Este 10 Sudeste 0 974.3 1.2 87
2019-10-23 23:00:00 11 4 Sudeste 17 Este 0 973.7 1.5 83
2019-10-23 22:00:00 11.1 12 Este 15 Este 0 973.1 1.3 87
2019-10-23 21:00:00 12.5 9 Este 14 Este 0 973.1 2.2 84
2019-10-23 20:00:00 13.7 13 Este 14 Este 0 972.2 1.1 80
2019-10-23 19:00:00 14.4 4 Nordeste 20 Sudeste 0 971.8 0.5 76
2019-10-23 18:00:00 15.2 16 Sudeste 22 Sur 0 970.9 0 71
2019-10-23 17:00:00 15.7 14 Sudeste 22 Sur 0 971.1 0.1 70
2019-10-23 16:00:00 15 16 Este 30 Sudeste 0 971.3 0 76
2019-10-23 15:00:00 14.7 17 Sudeste 26 Este 0 970.9 -0.7 79
2019-10-23 14:00:00 14.4 21 Sudeste 30 Sudeste 0 971 -0.3 86
2019-10-23 13:00:00 13.3 10 Sudeste 14 Este 0.2 971.3 -0.1 92
2019-10-23 12:00:00 12.1 6 Nordeste 9 Norte 0.2 971.6 0.6 94
2019-10-23 11:00:00 11.8 2 Nordeste 7 Sudeste 0 971.3 1.5 93
2019-10-23 10:00:00 10.9 5 Sur 10 Sur 1 971.4 2.1 96
2019-10-23 09:00:00 10.5 4 Sur 12 Sudeste 1.2 971 1.8 96
2019-10-23 08:00:00 10.5 4 Sudeste 15 Sudeste 0.2 969.8 0.5 95
2019-10-23 07:00:00 10.1 5 Noroeste 9 Oeste 0 969.3 -1.1 95
2019-10-23 06:00:00 10.2 3 Oeste 14 Oeste 0 969.2 -0.5 94
2019-10-23 05:00:00 10.2 12 Noroeste 16 Noroeste 0 969.3 -2.8 95
2019-10-23 04:00:00 10.1 14 Sudoeste 27 Sur 0 970.4 -2.4 95
2019-10-23 03:00:00 10 15 Noroeste 21 Noroeste 0.2 969.7 -4 96
2019-10-23 02:00:00 10.1 9 Norte 14 Norte 0 972.1 -1.4 96
2019-10-23 01:00:00 10.1 12 Noroeste 18 Noroeste 0 972.8 -0.6 95
2019-10-23 00:00:00 9.9 9 Oeste 18 Noroeste 0 973.7 -0.1 95
2019-10-22 23:00:00 9.8 13 Oeste 24 Oeste 0 973.5 0.6 95
2019-10-22 22:00:00 9.8 12 Oeste 22 Oeste 0 973.4 -0.2 94
2019-10-22 21:00:00 9.7 14 Noroeste 32 Noroeste 0 973.8 -0.3 93
2019-10-22 20:00:00 9.7 28 Oeste 40 Noroeste 1 972.9 -1.2 92
2019-10-22 19:00:00 9.5 31 Oeste 41 Oeste 2.4 973.6 -2 93
2019-10-22 18:00:00 10.1 26 Oeste 45 Oeste 0.8 974.1 -3.2 90
2019-10-22 17:00:00 10.8 35 Noroeste 48 Noroeste 0 974.1 -4.7 86
2019-10-22 16:00:00 11 28 Oeste 39 Oeste 2 975.6 -4.4 88
2019-10-22 15:00:00 10.8 23 Noroeste 38 Oeste 1.6 977.3 -4.3 89
2019-10-22 14:00:00 10.6 23 Oeste 36 Oeste 0.8 978.8 -3.1 85
2019-10-22 13:00:00 10.4 15 Oeste 29 Oeste 0 980 -1.8 84
2019-10-22 12:00:00 9.7 13 Oeste 20 Noroeste 0 981.6 -0.3 85
2019-10-22 11:00:00 9.2 12 Oeste 18 Oeste 0 981.9 0.4 84
2019-10-22 10:00:00 8.2 9 Sudoeste 17 Oeste 0 981.8 -1.1 89
2019-10-22 09:00:00 7.5 5 Sudoeste -- -- 0 981.9 -1.2 91
2019-10-22 08:00:00 7.3 9 Norte 13 Sudoeste 0 981.5 -2.3 92
2019-10-22 07:00:00 6.6 7 Sudoeste 10 Noroeste 0 982.9 -0.8 92
2019-10-22 06:00:00 6.1 3 Noroeste 5 Noroeste 0 983.1 -1.3 94
2019-10-22 05:00:00 6 4 Sudoeste 5 Sur 0 983.8 -0.7 93
2019-10-22 04:00:00 6.2 3 Oeste 6 Oeste 0 983.7 -0.6 93
2019-10-22 03:00:00 6.3 0 Calma 5 Oeste 0 984.4 0.2 91
2019-10-22 02:00:00 7.2 3 Sur 5 Sudoeste 0 984.5 0 90
2019-10-22 01:00:00 7.8 3 Sudoeste 9 Sudeste 0 984.3 0.2 86
2019-10-22 00:00:00 8.8 6 Sur 9 Sur 0 984.2 0.6 84
2019-10-21 23:00:00 9.6 5 Sur 8 Nordeste 0 984.5 1.4 80
2019-10-21 22:00:00 10.9 8 Nordeste 10 Nordeste 0 984.1 1.4 73
2019-10-21 21:00:00 11.4 2 Sur 12 Sudeste 0 983.6 1.1 73
2019-10-21 20:00:00 13.5 6 Nordeste 11 Este 0 983.1 0.6 64
2019-10-21 19:00:00 15.8 8 Este 14 Este 0 982.7 0.1 49
2019-10-21 18:00:00 16.5 11 Este 17 Este 0 982.5 -0.3 46
2019-10-21 17:00:00 17.4 5 Sur 15 Sur 0 982.5 -0.7 42
2019-10-21 16:00:00 17.3 6 Oeste 18 Oeste 0 982.6 -1.2 43
2019-10-21 15:00:00 16.7 6 Sur 17 Noroeste 0 982.8 -0.9 47
2019-10-21 14:00:00 16.2 4 Oeste 17 Noroeste 0 983.2 -0.3 55
2019-10-21 13:00:00 14.3 10 Oeste 18 Noroeste 0 983.8 0.4 63
2019-10-21 12:00:00 13 12 Oeste 17 Oeste 0 983.7 0.8 68
2019-10-21 11:00:00 12.1 11 Noroeste 16 Noroeste 0 983.5 1.2 73
2019-10-21 10:00:00 9.9 6 Noroeste 9 Noroeste 0 983.4 1.3 84
2019-10-21 09:00:00 8.1 2 Este 10 Este 0 982.9 1.2 92
2019-10-21 08:00:00 7.9 6 Oeste 10 Nordeste 0 982.3 0.8 91
2019-10-21 07:00:00 7.9 5 Sur 12 Oeste 0 982.1 0.6 88
2019-10-21 06:00:00 8.5 2 Sudoeste 13 Oeste 0 981.7 0.6 90
2019-10-21 05:00:00 8.8 5 Sudoeste 10 Sudoeste 0 981.5 0.5 87
2019-10-21 04:00:00 8.3 8 Sur 10 Sudoeste 0 981.5 1 89
2019-10-21 03:00:00 8.3 6 Noroeste 11 Noroeste 0 981.1 0.9 87
2019-10-21 02:00:00 8.9 4 Nordeste 17 Noroeste 0 981 1.2 86
2019-10-21 01:00:00 9.5 14 Noroeste 23 Oeste 0 980.5 1.8 84
2019-10-21 00:00:00 10.3 15 Oeste 22 Oeste 0 980.2 2.1 85
2019-10-20 23:00:00 10.7 12 Noroeste 30 Noroeste 0 979.8 2.7 87
2019-10-20 22:00:00 11.2 20 Oeste 30 Oeste 0.4 978.7 2.8 87
2019-10-20 21:00:00 11.2 21 Noroeste 30 Oeste 0.4 978.1 3.5 88
2019-10-20 20:00:00 11.9 14 Oeste 23 Oeste 0.4 977.1 3.7 88
2019-10-20 19:00:00 11.6 15 Oeste 38 Oeste 0.2 975.9 3.5 86
2019-10-20 18:00:00 12.7 29 Oeste 50 Noroeste 0 974.6 2.1 76
2019-10-20 17:00:00 15.8 27 Oeste 42 Oeste 0 973.4 0.8 63
2019-10-20 16:00:00 17.8 10 Sudoeste 24 Sudoeste 0 972.4 -0.2 49
2019-10-20 15:00:00 18.8 11 Sudoeste 21 Sudoeste 0 972.5 -0.3 46
2019-10-20 14:00:00 17.2 13 Sudoeste 22 Sur 0 972.6 0.2 54
2019-10-20 13:00:00 16.3 14 Sur 24 Sur 0 972.6 0.7 58
2019-10-20 12:00:00 15.6 17 Sudoeste 28 Sudoeste 0 972.8 1.9 60
2019-10-20 11:00:00 16.2 10 Sur 17 Sudeste 0 972.4 2 63
2019-10-20 10:00:00 14.2 4 Sur 8 Sur 0 971.9 2.7 87
2019-10-20 09:00:00 13.1 4 Nordeste 17 Sudoeste 0 970.9 2.6 89
2019-10-20 08:00:00 13.9 12 Sudoeste 26 Sur 0 970.4 2.7 85
2019-10-20 07:00:00 14.8 17 Sur 31 Sur 0.6 969.2 2.2 82
2019-10-20 06:00:00 15 14 Este 31 Sudeste 0 968.3 -0.1 84
2019-10-20 05:00:00 14.8 20 Este 35 Sudeste 0 967.7 -1.3 85
2019-10-20 04:00:00 15.1 28 Este 41 Este 0 967 -2.4 86
2019-10-20 03:00:00 15.2 23 Este 33 Este 0 968.4 -0.8 86
2019-10-20 02:00:00 15.1 21 Este 28 Este 1.8 969 -0.2 88
2019-10-20 01:00:00 16.6 11 Sudeste 25 Sudeste 1.2 969.4 0 82
2019-10-20 00:00:00 19.4 11 Sudeste 35 Sudeste 0 969.2 -0.6 57
2019-10-19 23:00:00 19.9 25 Sudeste 39 Sudeste 0 969.2 -0.7 52
2019-10-19 22:00:00 18.7 12 Sudeste 36 Sur 0 969.4 -0.9 55
2019-10-19 21:00:00 19.7 21 Sudeste 34 Sudeste 0 969.8 -0.4 52
2019-10-19 20:00:00 18.8 13 Sudeste 23 Sudeste 0 969.9 -0.5 53
2019-10-19 19:00:00 20.2 5 Este 11 Sudoeste 0 970.3 -0.8 47
2019-10-19 18:00:00 20.6 11 Sudoeste 30 Sur 0 970.2 -1.6 44
2019-10-19 17:00:00 21.2 11 Sudeste 28 Sudeste 0 970.4 -1.7 41
2019-10-19 16:00:00 20.9 6 Norte 17 Oeste 0 971.1 -1.6 41
2019-10-19 15:00:00 19.9 12 Noroeste 27 Oeste 0.2 971.8 -2.1 51
2019-10-19 14:00:00 20.8 7 Sur 22 Este 0 972.1 -2.3 45
2019-10-19 13:00:00 20.1 17 Este 26 Este 0 972.7 -1.7 47
2019-10-19 12:00:00 18.8 13 Nordeste 23 Nordeste 0 973.9 -0.3 57
2019-10-19 11:00:00 16.8 17 Sudoeste 36 Sudoeste 0 974.4 0 63
2019-10-19 10:00:00 16.7 16 Sudoeste 33 Sur 0 974.4 -0.2 64
2019-10-19 09:00:00 16 11 Sur 19 Sur 0 974.2 -0.4 68
2019-10-19 08:00:00 15.9 7 Sur 14 Sudoeste 0 974.4 -0.2 71
2019-10-19 07:00:00 15 3 Sudeste 11 Este 0 974.6 -0.4 86
2019-10-19 06:00:00 15.5 8 Este 16 Este 0 974.6 -1.2 83
2019-10-19 05:00:00 16.5 4 Este 16 Este 0 974.6 -1.4 76
2019-10-19 04:00:00 16.2 16 Este 28 Este 0 975 -0.9 81
2019-10-19 03:00:00 16.6 16 Este 24 Este 0 975.8 -0.7 80
2019-10-19 02:00:00 16.3 16 Este 32 Este 0 976 -1 83
2019-10-19 01:00:00 16.3 22 Este 33 Este 0 975.9 -1.4 83
2019-10-19 00:00:00 16.4 18 Este 24 Sudeste 0 976.5 -0.6 84
2019-10-18 23:00:00 16.7 8 Sudeste 19 Este 0 977 -0.1 83
2019-10-18 22:00:00 17.1 14 Este 23 Este 0 977.3 -0.2 82
2019-10-18 21:00:00 17.3 18 Este 27 Este 0 977.1 -0.9 82
2019-10-18 20:00:00 17.8 19 Este 29 Este 0.2 977.1 -1.4 80
2019-10-18 19:00:00 19.1 19 Este 27 Este 0 977.5 -1.6 76
2019-10-18 18:00:00 19.8 17 Este 22 Este 0 978 -1.5 73
2019-10-18 17:00:00 20.2 13 Este 22 Este 0 978.5 -1.6 72
2019-10-18 16:00:00 19.7 12 Este 19 Este 0 979.1 -1.9 74
2019-10-18 15:00:00 18.9 9 Este 14 Este 0 979.5 -1.5 77
2019-10-18 14:00:00 18.2 6 Sudeste 18 Este 0 980.1 -1.5 79
2019-10-18 13:00:00 17.4 12 Este 21 Este 0 981 0.1 80
2019-10-18 12:00:00 16.3 10 Este 20 Este 0 981 0.8 86
2019-10-18 11:00:00 15.5 12 Sudeste 21 Sudeste 0 981.6 1.4 87
2019-10-18 10:00:00 14.3 14 Sudeste 25 Este 0 980.9 0.7 91
2019-10-18 09:00:00 13.7 21 Este 27 Este 0.2 980.2 0.2 92
2019-10-18 08:00:00 13.7 20 Este 28 Este 0 980.2 0.5 91
2019-10-18 07:00:00 13.7 21 Este 29 Este 2.2 980.2 -0.1 91
2019-10-18 06:00:00 13.9 23 Este 40 Este 1.4 980 -1 90
2019-10-18 05:00:00 13.6 27 Este 39 Este 0.2 979.7 -1.2 90
2019-10-18 04:00:00 13.7 27 Este 34 Este 2.8 980.3 -0.5 88
2019-10-18 03:00:00 14.4 3 Sudeste 14 Nordeste 0.4 981 -0.2 81
2019-10-18 02:00:00 15.6 12 Este 32 Este 0 980.9 -0.1 70
2019-10-18 01:00:00 15.1 21 Este 28 Este 0 980.8 -0.3 67
2019-10-18 00:00:00 14.5 11 Este 25 Este 0 981.2 0.6 70
2019-10-17 23:00:00 15.8 18 Este 26 Este 0 981 0.7 64
2019-10-17 22:00:00 16.4 18 Este 31 Este 0 981.1 1.2 62
2019-10-17 21:00:00 17.2 19 Este 31 Este 0 980.6 0.8 59
2019-10-17 20:00:00 18.5 22 Este 32 Este 0 980.3 0.3 56
2019-10-17 19:00:00 21.1 18 Este 25 Este 0 979.9 -0.6 48
2019-10-17 18:00:00 22.3 18 Sudeste 32 Sudeste 0 979.8 -1.3 47
2019-10-17 17:00:00 22.6 19 Sudeste 32 Sudeste 0 980 -1.6 43
2019-10-17 16:00:00 21.6 20 Este 31 Este 0 980.5 -1.8 41
2019-10-17 15:00:00 19.7 23 Este 31 Este 0 981.1 -1.3 45
2019-10-17 14:00:00 18.6 22 Este 30 Este 0 981.6 -0.4 47
2019-10-17 13:00:00 17.2 18 Este 27 Este 0 982.3 0.5 52
2019-10-17 12:00:00 16 22 Este 32 Este 0 982.4 1.6 59
2019-10-17 11:00:00 14.5 23 Este 34 Este 0 982 1.8 64
2019-10-17 10:00:00 13.5 11 Este 28 Este 0 981.8 1.3 68
2019-10-17 09:00:00 12.6 20 Este 30 Este 0 980.8 0.6 71
2019-10-17 08:00:00 13 16 Este 21 Este 0 980.2 0.1 66
2019-10-17 07:00:00 12.5 9 Este 22 Este 0 980.5 -0.1 68
2019-10-17 06:00:00 12.2 18 Este 33 Este 0 980.2 -0.5 68
2019-10-17 05:00:00 12.9 23 Este 34 Este 0 980.1 -1 64
2019-10-17 04:00:00 13.4 21 Este 31 Este 0 980.6 -0.5 61
2019-10-17 03:00:00 13.4 16 Este 27 Este 0 980.7 -0.6 61
2019-10-17 02:00:00 12.9 6 Este 24 Este 0 981.1 0.1 65
2019-10-17 01:00:00 13.5 17 Este 26 Este 0 981.1 0.2 62
2019-10-17 00:00:00 15.6 14 Este 28 Este 0 981.3 0.9 53
2019-10-16 23:00:00 15.3 22 Este 35 Este 0 981 0.7 56
2019-10-16 22:00:00 15.4 16 Este 29 Este 0 980.9 1.1 56
2019-10-16 21:00:00 15.9 18 Este 25 Este 0 980.4 0.4 55
2019-10-16 20:00:00 17.2 16 Este 20 Este 0 980.3 -0.2 51
2019-10-16 19:00:00 20 13 Este 28 Este 0 979.8 -1.4 38
2019-10-16 18:00:00 21 21 Este 30 Este 0 980 -1.7 34
2019-10-16 17:00:00 21.6 18 Este 27 Sudeste 0 980.5 -2 33
2019-10-16 16:00:00 20.7 11 Sudeste 26 Sudeste 0 981.2 -2.2 32
2019-10-16 15:00:00 20.8 18 Sur 29 Sur 0 981.7 -2 32
2019-10-16 14:00:00 20.4 13 Sur 28 Sur 0 982.5 -1.4 35
2019-10-16 13:00:00 18.9 13 Sur 26 Sur 0 983.4 -0.5 41
2019-10-16 12:00:00 18 15 Sudeste 30 Este 0 983.7 0.3 45
2019-10-16 11:00:00 15 18 Este 26 Este 0 983.9 0.8 58
2019-10-16 10:00:00 12.9 19 Este 31 Este 0 983.9 0.9 65
2019-10-16 09:00:00 10.1 20 Este 26 Este 0 983.4 0.3 75
2019-10-16 08:00:00 9.8 20 Este 28 Este 0 983.1 0 77
2019-10-16 07:00:00 9.9 20 Este 29 Este 0 983 -0.4 76
2019-10-16 06:00:00 10.3 21 Este 27 Este 0 983.1 -0.8 75
2019-10-16 05:00:00 11.1 19 Este 27 Este 0 983.1 -1.2 71
2019-10-16 04:00:00 11.3 17 Este -- -- -- 983.4 -1.1 69
2019-10-16 03:00:00 11.5 16 Este 26 Este 0 983.9 -0.9 68
2019-10-16 02:00:00 11.6 14 Este 21 Este 0 984.3 -0.3 66
2019-10-16 01:00:00 11.3 12 Este 18 Este 0 984.5 0.2 67
2019-10-16 00:00:00 11.3 4 Sudeste 15 Este 0 984.8 0.9 65
2019-10-15 23:00:00 11.6 6 Sudeste 9 Sudoeste 0 984.6 1 68
2019-10-15 22:00:00 13 2 Sudeste 6 Norte 0 984.3 1 58
2019-10-15 21:00:00 13.7 5 Norte 13 Noroeste 0 983.9 0.9 52
2019-10-15 20:00:00 15.5 10 Noroeste 12 Noroeste 0 983.6 0.7 49
2019-10-15 19:00:00 18.5 5 Oeste 12 Sudoeste 0 983.3 0.5 37
2019-10-15 18:00:00 19.1 6 Norte 18 Oeste 0 983 -0.3 33
2019-10-15 17:00:00 19.5 10 Oeste 24 Oeste 0 982.9 -1 33
2019-10-15 16:00:00 19.3 15 Oeste 33 Oeste 0 982.8 -1.5 33
2019-10-15 15:00:00 18.5 11 Oeste 32 Oeste 0 983.3 -1.2 35
2019-10-15 14:00:00 17 12 Oeste 23 Oeste 0 983.9 -0.4 42
2019-10-15 13:00:00 15.6 10 Oeste 27 Noroeste 0 984.3 0.4 48
2019-10-15 12:00:00 14.2 15 Noroeste 26 Oeste 0 984.5 1.6 57
2019-10-15 11:00:00 12.4 15 Noroeste 23 Oeste 0.2 984.3 2 62
2019-10-15 10:00:00 10.8 8 Noroeste 17 Oeste 0 983.9 1.9 69
2019-10-15 09:00:00 8.7 12 Noroeste 24 Noroeste 0 982.9 1.4 79
2019-10-15 08:00:00 8.8 16 Noroeste 23 Noroeste 0 982.3 1.5 77
2019-10-15 07:00:00 9.2 17 Oeste 23 Oeste 0 982 1.7 76
2019-10-15 06:00:00 9.9 21 Noroeste 33 Oeste 0 981.5 1.4 75
2019-10-15 05:00:00 10.5 23 Noroeste 30 Oeste 0 980.8 1 75
2019-10-15 04:00:00 11.2 6 Oeste -- -- 1 980.3 0.9 86
2019-10-15 03:00:00 11.4 -- -- -- -- 0 980.1 1.3 88
2019-10-15 02:00:00 11.9 -- -- -- -- 0.6 979.8 1.3 79
2019-10-15 01:00:00 12.4 -- -- -- -- 0 979.4 1.4 74
2019-10-15 00:00:00 13.6 -- -- -- -- 0 978.8 1.5 62
2019-10-14 23:00:00 13.1 8 Oeste 38 Oeste 0 978.5 3.4 75
2019-10-14 22:00:00 15.4 16 Sudoeste 25 Sudoeste 0 978 5.1 57
2019-10-14 21:00:00 15.5 6 Sudoeste 42 Noroeste 0 977.3 4.4 64
2019-10-14 20:00:00 16.2 38 Noroeste 62 Noroeste 0 975.1 2.1 63
2019-10-14 19:00:00 19.7 28 Este 39 Este 0 972.9 -0.7 72
2019-10-14 18:00:00 20.9 23 Este 38 Este 0 972.9 -1.5 75
2019-10-14 17:00:00 20.5 31 Este 44 Este 1.2 973 -1.8 77
2019-10-14 16:00:00 20.6 35 Este 50 Este 0 973.6 -1.7 68
2019-10-14 15:00:00 21.3 30 Sudeste 48 Sudeste 0.6 974.4 -1.5 65
2019-10-14 14:00:00 21.8 30 Sudeste 67 Sudeste 0 974.8 -1 54
2019-10-14 13:00:00 21.6 38 Sudeste 53 Sudeste 0 975.3 0.3 55
2019-10-14 12:00:00 21.2 30 Sudeste 52 Este 0 975.9 0.9 60
2019-10-14 11:00:00 19.3 40 Este 60 Este 0 975.8 0.5 75
2019-10-14 10:00:00 18.8 44 Este 65 Este 0 975 -0.9 75
2019-10-14 09:00:00 18.5 31 Este 54 Este 0 975 -0.8 76
2019-10-14 08:00:00 18.7 33 Este 58 Este 0 975.3 -0.7 74
2019-10-14 07:00:00 18.7 27 Sudeste 53 Este 0 975.9 -1.2 75
2019-10-14 06:00:00 18.3 30 Este 54 Este 0 975.8 -1.7 79
2019-10-14 05:00:00 18.4 30 Este 51 Este 0 976 -2.2 78
2019-10-14 04:00:00 18.4 28 Este 51 Este 0 977.1 -1.2 79
2019-10-14 03:00:00 18.7 37 Este 57 Este 0 977.5 -0.9 78
2019-10-14 02:00:00 18.9 34 Este 54 Este 0 978.2 -0.3 78
2019-10-14 01:00:00 19.5 37 Este 48 Este 0 978.3 0.3 76
2019-10-14 00:00:00 20 36 Este 49 Este 0 978.4 0.1 74